Time;durP1;ratioP1;P1;durP2;ratioP2;P2;SDS_P1;SDS_P2;PMS_P1;PMS_P2;Temp;Humidity;BMP_temperature;BMP_pressure;BME280_temperature;BME280_humidity;BME280_pressure;Samples;Min_cycle;Max_cycle;Signal;HPM_P1;HPM_P2
2021/11/26 00:00:54;;;;;;;36.78;19.40;;;;;;;;;;5055297;28;20029;-82
2021/11/26 00:03:21;;;;;;;36.65;18.98;;;;;;;;;;5051088;28;20085;-84
2021/11/26 00:05:47;;;;;;;41.55;20.52;;;;;;;;;;5045581;28;20026;-83
2021/11/26 00:08:13;;;;;;;41.95;21.77;;;;;;;;;;5063346;28;20124;-83
2021/11/26 00:10:39;;;;;;;41.70;20.60;;;;;;;;;;5050781;28;20044;-83
2021/11/26 00:13:08;;;;;;;41.47;21.08;;;;;;;;;;5042679;28;20125;-82
2021/11/26 00:15:38;;;;;;;46.80;23.35;;;;;;;;;;5042516;28;20034;-84
2021/11/26 00:18:16;;;;;;;41.88;21.50;;;2.90;99.90;;;;;;5042891;28;20030;-85
2021/11/26 00:20:43;;;;;;;41.05;21.45;;;;;;;;;;5041156;28;20034;-86
2021/11/26 00:23:09;;;;;;;40.15;21.63;;;;;;;;;;5040650;28;20040;-88
2021/11/26 00:25:35;;;;;;;41.05;20.60;;;;;;;;;;5037269;28;20021;-86
2021/11/26 00:28:01;;;;;;;42.95;22.27;;;;;;;;;;5025621;28;20036;-83
2021/11/26 00:30:28;;;;;;;39.38;19.92;;;3.00;99.90;;;;;;5031250;28;20034;-81
2021/11/26 00:32:53;;;;;;;36.97;19.70;;;4.40;99.90;;;;;;5053499;28;20036;-81
2021/11/26 00:35:19;;;;;;;41.55;21.33;;;3.00;99.90;;;;;;5028158;28;20022;-82
2021/11/26 00:37:45;;;;;;;38.65;21.23;;;3.00;99.90;;;;;;5034899;28;20053;-83
2021/11/26 00:40:12;;;;;;;37.88;19.90;;;4.90;99.90;;;;;;5041571;28;20497;-82
2021/11/26 00:42:41;;;;;;;37.90;20.50;;;3.00;99.90;;;;;;5040327;28;20033;-83
2021/11/26 00:45:08;;;;;;;37.42;20.50;;;3.80;99.90;;;;;;5035211;28;20033;-84
2021/11/26 00:47:34;;;;;;;37.08;18.98;;;3.10;99.90;;;;;;5038058;28;20037;-81
2021/11/26 00:49:59;;;;;;;39.80;20.42;;;3.10;99.90;;;;;;5042726;28;20060;-83
2021/11/26 00:52:25;;;;;;;35.25;19.40;;;4.80;99.90;;;;;;5044306;28;20029;-85
2021/11/26 00:54:51;;;;;;;38.08;20.20;;;;;;;;;;5061924;28;20084;-83
2021/11/26 00:57:17;;;;;;;39.67;20.77;;;;;;;;;;5058495;28;20026;-82
2021/11/26 00:59:43;;;;;;;38.25;19.80;;;;;;;;;;5052607;28;20093;-86
2021/11/26 01:02:09;;;;;;;41.70;20.90;;;3.10;99.90;;;;;;5044483;28;20009;-87
2021/11/26 01:04:35;;;;;;;38.33;20.08;;;5.30;99.90;;;;;;5044185;28;20052;-82
2021/11/26 01:07:01;;;;;;;36.55;19.65;;;;;;;;;;5042957;28;20021;-83
2021/11/26 01:09:27;;;;;;;38.80;20.90;;;;;;;;;;5051348;28;20022;-84
2021/11/26 01:11:53;;;;;;;40.55;20.55;;;;;;;;;;5045314;28;20001;-87
2021/11/26 01:14:19;;;;;;;38.22;20.52;;;3.10;99.90;;;;;;5036693;28;20030;-83
2021/11/26 01:16:45;;;;;;;36.97;19.98;;;3.10;99.90;;;;;;5059093;28;20291;-83
2021/11/26 01:19:11;;;;;;;40.45;22.17;;;4.00;99.90;;;;;;5048314;28;20021;-82
2021/11/26 01:21:36;;;;;;;41.00;21.52;;;3.10;99.90;;;;;;5047585;28;20069;-86
2021/11/26 01:24:02;;;;;;;43.63;22.38;;;4.40;99.90;;;;;;5051109;28;20017;-85
2021/11/26 01:26:28;;;;;;;41.42;22.83;;;3.00;99.90;;;;;;5046414;28;20034;-83
2021/11/26 01:28:53;;;;;;;44.67;23.13;;;5.30;99.90;;;;;;5046100;28;20036;-86
2021/11/26 01:31:20;;;;;;;42.85;22.77;;;;;;;;;;5050972;28;20037;-84
2021/11/26 01:33:46;;;;;;;41.40;21.65;;;;;;;;;;5053010;28;20021;-83
2021/11/26 01:36:12;;;;;;;45.15;24.48;;;;;;;;;;5047032;28;20072;-84
2021/11/26 01:38:38;;;;;;;43.70;22.63;;;2.90;99.90;;;;;;5049743;28;20148;-82
2021/11/26 01:41:08;;;;;;;38.97;21.13;;;4.90;99.90;;;;;;5045127;28;20062;-82
2021/11/26 01:43:34;;;;;;;42.97;20.83;;;5.40;99.90;;;;;;5048109;28;20025;-81
2021/11/26 01:46:07;;;;;;;44.25;21.63;;;3.00;99.90;;;;;;5043874;28;20079;-84
2021/11/26 01:48:33;;;;;;;41.28;21.90;;;2.90;99.90;;;;;;5046040;28;20021;-81
2021/11/26 01:50:59;;;;;;;40.40;21.35;;;;;;;;;;5040267;28;20036;-83
2021/11/26 01:53:25;;;;;;;39.92;21.48;;;2.90;99.90;;;;;;5038114;28;20021;-83
2021/11/26 01:55:52;;;;;;;41.85;22.38;;;2.70;99.90;;;;;;5039386;28;20022;-85
2021/11/26 01:58:24;;;;;;;42.63;21.30;;;2.90;99.90;;;;;;5031998;28;20029;-82
2021/11/26 02:00:51;;;;;;;40.10;21.27;;;2.80;99.90;;;;;;5033709;28;20029;-83
2021/11/26 02:03:17;;;;;;;42.28;22.73;;;2.70;99.90;;;;;;5039352;28;20513;-86
2021/11/26 02:05:43;;;;;;;45.40;22.75;;;;;;;;;;5037626;28;20030;-80
2021/11/26 02:08:09;;;;;;;41.63;22.27;;;2.70;99.90;;;;;;5033319;28;20541;-83
2021/11/26 02:10:36;;;;;;;41.10;21.73;;;2.30;99.90;;;;;;5033766;28;20116;-83
2021/11/26 02:13:02;;;;;;;40.03;21.55;;;3.90;99.90;;;;;;5040368;28;20029;-82
2021/11/26 02:15:31;;;;;;;39.35;21.27;;;3.00;99.90;;;;;;5045418;28;20025;-84
2021/11/26 02:17:59;;;;;;;44.60;22.02;;;4.80;99.90;;;;;;5038996;28;20026;-84
2021/11/26 02:20:28;;;;;;;39.97;22.88;;;5.90;99.90;;;;;;5035706;28;20101;-84
2021/11/26 02:22:55;;;;;;;49.15;23.52;;;4.20;99.90;;;;;;5035390;28;20476;-83
2021/11/26 02:25:22;;;;;;;42.92;22.33;;;2.50;99.90;;;;;;5032717;28;20025;-85
2021/11/26 02:27:50;;;;;;;43.92;23.08;;;2.50;99.90;;;;;;5028768;28;20033;-86
2021/11/26 02:30:16;;;;;;;41.33;21.48;;;5.50;99.90;;;;;;5024791;28;20052;-83
2021/11/26 02:32:45;;;;;;;45.53;22.60;;;2.40;99.90;;;;;;5027216;28;20021;-83
2021/11/26 02:35:12;;;;;;;43.05;22.13;;;2.30;99.90;;;;;;5032588;28;20114;-85
2021/11/26 02:37:39;;;;;;;45.38;23.10;;;2.30;99.90;;;;;;5031252;28;20094;-84
2021/11/26 02:40:06;;;;;;;45.28;23.25;;;3.50;99.90;;;;;;5035411;28;20029;-83
2021/11/26 02:42:32;;;;;;;42.20;22.35;;;2.30;99.90;;;;;;5032256;28;20108;-83
2021/11/26 02:44:58;;;;;;;47.15;23.42;;;2.30;99.90;;;;;;5030433;28;20104;-82
2021/11/26 02:47:23;;;;;;;54.42;23.98;;;3.60;99.90;;;;;;5028683;28;20029;-82
2021/11/26 02:49:49;;;;;;;52.15;24.08;;;;;;;;;;5028363;28;20099;-81
2021/11/26 02:52:15;;;;;;;47.72;23.92;;;2.30;99.90;;;;;;5031506;28;20028;-82
2021/11/26 02:54:41;;;;;;;43.20;23.30;;;4.20;99.90;;;;;;5038733;28;20033;-84
2021/11/26 02:57:07;;;;;;;62.92;27.30;;;;;;;;;;5032755;28;20053;-84
2021/11/26 02:59:33;;;;;;;46.78;24.55;;;;;;;;;;5028337;28;20029;-83
2021/11/26 03:02:01;;;;;;;51.05;24.55;;;;;;;;;;5030381;28;20029;-83
2021/11/26 03:04:26;;;;;;;48.72;25.23;;;2.30;99.90;;;;;;5020624;28;20135;-83
2021/11/26 03:07:04;;;;;;;54.17;25.55;;;5.00;99.90;;;;;;5029828;28;20076;-82
2021/11/26 03:09:30;;;;;;;43.83;22.85;;;;;;;;;;5041739;28;20052;-86
2021/11/26 03:11:56;;;;;;;49.55;23.35;;;2.20;99.90;;;;;;5033643;28;20022;-83
2021/11/26 03:14:22;;;;;;;43.67;22.38;;;2.70;99.90;;;;;;5024186;28;20030;-84
2021/11/26 03:16:48;;;;;;;43.05;22.73;;;;;;;;;;5031195;28;20041;-84
2021/11/26 03:19:13;;;;;;;44.28;22.85;;;2.20;99.90;;;;;;5028281;28;20463;-83
2021/11/26 03:21:40;;;;;;;46.35;23.27;;;;;;;;;;5032887;28;20025;-86
2021/11/26 03:24:06;;;;;;;42.08;22.75;;;2.30;99.90;;;;;;5036092;28;20028;-84
2021/11/26 03:26:33;;;;;;;40.58;21.67;;;2.30;99.90;;;;;;5028889;28;20024;-80
2021/11/26 03:28:59;;;;;;;42.92;22.50;;;;;;;;;;5046977;28;20116;-82
2021/11/26 03:31:25;;;;;;;46.08;23.35;;;;;;;;;;5032293;28;20629;-86
2021/11/26 03:33:51;;;;;;;43.35;23.02;;;;;;;;;;5035573;28;20047;-84
2021/11/26 03:36:17;;;;;;;43.20;20.50;;;;;;;;;;5028070;28;20423;-82
2021/11/26 03:38:43;;;;;;;41.30;21.92;;;;;;;;;;5030779;28;20486;-83
2021/11/26 03:41:09;;;;;;;43.50;22.40;;;;;;;;;;5037301;28;20487;-84
2021/11/26 03:43:35;;;;;;;42.88;20.90;;;2.30;99.90;;;;;;5038963;28;20057;-83
2021/11/26 03:46:03;;;;;;;44.30;22.45;;;2.30;99.90;;;;;;5032945;28;20037;-82
2021/11/26 03:48:28;;;;;;;38.85;20.80;;;5.60;99.90;;;;;;5052897;28;20021;-83
2021/11/26 03:50:54;;;;;;;46.40;22.45;;;;;;;;;;5056219;28;20056;-83
2021/11/26 03:53:20;;;;;;;42.38;21.60;;;2.20;99.90;;;;;;5052453;28;20014;-83
2021/11/26 03:55:46;;;;;;;40.20;21.63;;;2.10;99.90;;;;;;5050247;28;20025;-82
2021/11/26 03:58:12;;;;;;;43.33;21.48;;;;;;;;;;5042333;28;20057;-83
2021/11/26 04:00:37;;;;;;;41.55;21.95;;;2.20;99.90;;;;;;5035580;28;20487;-81
2021/11/26 04:03:04;;;;;;;45.53;22.98;;;2.20;99.90;;;;;;5039568;28;20058;-82
2021/11/26 04:05:30;;;;;;;48.15;24.17;;;;;;;;;;5036685;28;20029;-80
2021/11/26 04:07:56;;;;;;;45.42;22.92;;;2.10;99.90;;;;;;5038092;28;20018;-82
2021/11/26 04:10:22;;;;;;;46.45;23.65;;;5.00;99.90;;;;;;5043596;28;20037;-80
2021/11/26 04:12:49;;;;;;;45.90;23.73;;;2.10;99.90;;;;;;5040823;28;20033;-84
2021/11/26 04:15:16;;;;;;;46.92;23.45;;;;;;;;;;5036613;28;20029;-82
2021/11/26 04:17:45;;;;;;;49.45;23.20;;;2.10;99.90;;;;;;5038326;28;20185;-82
2021/11/26 04:20:11;;;;;;;48.05;23.35;;;;;;;;;;5050413;28;20092;-83
2021/11/26 04:22:37;;;;;;;49.20;24.88;;;;;;;;;;5038109;28;20030;-82
2021/11/26 04:25:04;;;;;;;47.40;24.48;;;2.10;99.90;;;;;;5037057;28;20048;-84
2021/11/26 04:27:30;;;;;;;42.65;22.27;;;2.10;99.90;;;;;;5039065;28;20033;-83
2021/11/26 04:29:56;;;;;;;45.85;23.77;;;2.10;99.90;;;;;;5039232;28;20032;-85
2021/11/26 04:32:21;;;;;;;50.75;23.83;;;3.40;99.90;;;;;;5042311;28;20022;-85
2021/11/26 04:34:47;;;;;;;44.85;22.63;;;2.10;99.90;;;;;;5043925;28;20034;-84
2021/11/26 04:37:13;;;;;;;46.22;23.33;;;2.10;99.90;;;;;;5036784;28;20025;-81
2021/11/26 04:39:39;;;;;;;46.60;23.45;;;2.20;99.90;;;;;;5033391;28;20039;-83
2021/11/26 04:42:05;;;;;;;48.00;22.70;;;3.40;99.90;;;;;;5042304;28;20029;-83
2021/11/26 04:44:31;;;;;;;45.78;22.98;;;;;;;;;;5042068;28;20030;-83
2021/11/26 04:46:57;;;;;;;42.60;22.25;;;;;;;;;;5046213;28;20045;-83
2021/11/26 04:49:23;;;;;;;45.35;22.98;;;;;;;;;;5031517;28;20072;-83
2021/11/26 04:51:48;;;;;;;46.03;22.88;;;2.30;99.90;;;;;;5044589;28;20029;-83
2021/11/26 04:54:14;;;;;;;49.92;23.90;;;;;;;;;;5040267;28;20022;-83
2021/11/26 04:56:40;;;;;;;44.30;22.95;;;2.30;99.90;;;;;;5033334;28;20025;-82
2021/11/26 04:59:06;;;;;;;45.58;23.45;;;;;;;;;;5035109;28;20021;-82
2021/11/26 05:01:32;;;;;;;49.80;23.83;;;;;;;;;;5035911;28;20512;-83
2021/11/26 05:03:58;;;;;;;48.38;24.50;;;;;;;;;;5036920;28;20030;-81
2021/11/26 05:06:24;;;;;;;44.78;23.40;;;;;;;;;;5048491;28;20086;-82
2021/11/26 05:08:51;;;;;;;46.25;23.88;;;;;;;;;;5049433;28;20411;-87
2021/11/26 05:11:17;;;;;;;45.58;23.27;;;2.30;99.90;;;;;;5041222;28;20037;-85
2021/11/26 05:13:46;;;;;;;47.25;23.35;;;2.40;99.90;;;;;;5041143;28;20755;-82
2021/11/26 05:16:13;;;;;;;46.95;24.00;;;;;;;;;;5029259;28;20079;-83
2021/11/26 05:18:48;;;;;;;51.28;26.00;;;2.30;99.90;;;;;;5029286;28;20068;-84
2021/11/26 05:21:14;;;;;;;49.35;24.33;;;2.30;99.90;;;;;;5033687;28;20053;-86
2021/11/26 05:23:39;;;;;;;45.78;23.98;;;2.30;99.90;;;;;;5032226;28;20061;-84
2021/11/26 05:26:06;;;;;;;50.42;24.92;;;4.40;99.90;;;;;;5035749;28;20033;-81
2021/11/26 05:28:32;;;;;;;47.47;23.80;;;;;;;;;;5036403;28;20033;-83
2021/11/26 05:30:58;;;;;;;48.35;23.77;;;2.40;99.90;;;;;;5022847;28;20056;-82
2021/11/26 05:33:25;;;;;;;50.78;23.33;;;5.10;99.90;;;;;;5029403;28;20083;-82
2021/11/26 05:35:51;;;;;;;49.72;24.90;;;;;;;;;;5029317;28;20033;-82
2021/11/26 05:38:17;;;;;;;47.00;23.60;;;;;;;;;;5032391;28;20049;-82
2021/11/26 05:40:43;;;;;;;52.40;25.55;;;;;;;;;;5037234;28;20100;-84
2021/11/26 05:43:09;;;;;;;43.25;22.52;;;;;;;;;;5038115;28;20029;-83
2021/11/26 05:45:35;;;;;;;48.90;25.17;;;;;;;;;;5039630;28;20127;-84
2021/11/26 05:48:01;;;;;;;49.00;24.95;;;;;;;;;;5036087;28;20060;-82
2021/11/26 05:50:27;;;;;;;45.25;24.83;;;;;;;;;;5033305;28;20036;-81
2021/11/26 05:52:54;;;;;;;46.90;23.27;;;2.30;99.90;;;;;;5037795;28;20032;-84
2021/11/26 05:55:24;;;;;;;48.58;24.63;;;2.30;99.90;;;;;;5032911;28;20026;-81
2021/11/26 05:57:51;;;;;;;45.83;23.53;;;;;;;;;;5031785;28;20025;-81
2021/11/26 06:00:22;;;;;;;50.72;24.60;;;2.30;99.90;;;;;;5031965;28;20069;-82
2021/11/26 06:02:48;;;;;;;;;;;3.70;99.90;;;;;;5036520;28;20114;-83
2021/11/26 06:05:14;;;;;;;48.03;24.02;;;;;;;;;;5045352;28;20363;-83
2021/11/26 06:07:40;;;;;;;49.70;24.20;;;;;;;;;;5052285;28;20056;-79
2021/11/26 06:10:10;;;;;;;48.17;24.33;;;2.30;99.90;;;;;;5052956;28;20044;-83
2021/11/26 06:12:39;;;;;;;48.63;24.27;;;2.30;99.90;;;;;;5047883;28;20006;-84
2021/11/26 06:15:06;;;;;;;46.80;23.35;;;2.40;99.90;;;;;;5034912;28;20029;-84
2021/11/26 06:17:32;;;;;;;47.72;24.17;;;;;;;;;;5034443;28;20037;-84
2021/11/26 06:19:57;;;;;;;49.42;25.00;;;2.40;99.90;;;;;;5031073;28;20049;-83
2021/11/26 06:22:23;;;;;;;47.42;24.17;;;2.30;99.90;;;;;;5033135;28;20057;-84
2021/11/26 10:29:16;;;;;;;51.50;20.17;;;4.00;99.90;;;;;;5028570;28;20076;-80
2021/11/26 10:31:43;;;;;;;49.83;18.75;;;4.10;99.90;;;;;;5010892;28;20038;-81
2021/11/26 10:34:10;;;;;;;61.58;19.92;;;4.20;99.90;;;;;;4995426;28;20041;-80
2021/11/26 10:36:52;;;;;;;42.35;17.52;;;4.20;99.90;;;;;;5002138;28;20451;-82
2021/11/26 10:39:20;;;;;;;40.78;15.88;;;4.40;99.90;;;;;;5017128;28;20053;-83
2021/11/26 10:41:53;;;;;;;41.22;16.73;;;4.60;99.90;;;;;;5021880;28;20064;-81
2021/11/26 10:47:13;;;;;;;45.72;17.80;;;4.70;99.90;;;;;;5012203;28;20034;-83
2021/11/26 10:52:48;;;;;;;42.63;16.33;;;4.60;99.90;;;;;;5020063;28;20138;-85
2021/11/26 10:58:22;;;;;;;40.50;17.80;;;4.50;99.90;;;;;;5017209;28;20048;-83
2021/11/26 11:00:48;;;;;;;41.03;16.20;;;4.50;99.90;;;;;;5002670;28;20280;-81
2021/11/26 11:03:14;;;;;;;43.30;18.80;;;4.40;99.90;;;;;;5006649;28;20037;-82
2021/11/26 11:05:41;;;;;;;46.53;18.88;;;4.40;99.90;;;;;;5013675;28;20017;-80
2021/11/26 11:08:23;;;;;;;47.13;17.50;;;4.50;99.90;;;;;;4998325;28;20029;-80
2021/11/26 11:10:52;;;;;;;45.47;18.42;;;4.50;99.90;;;;;;5020695;28;20017;-80
2021/11/26 11:13:29;;;;;;;47.10;19.17;;;4.50;99.90;;;;;;5018176;28;20085;-79
2021/11/26 11:16:12;;;;;;;42.10;18.80;;;4.50;99.90;;;;;;5012633;28;21110;-78
2021/11/26 11:18:39;;;;;;;46.25;18.05;;;2.90;99.90;;;;;;5015682;28;20268;-83
2021/11/26 11:21:11;;;;;;;44.63;19.35;;;4.30;99.90;;;;;;5021854;28;20061;-79
2021/11/26 11:23:38;;;;;;;36.33;16.38;;;4.40;99.90;;;;;;5027803;28;20044;-82
2021/11/26 11:26:09;;;;;;;47.67;17.10;;;4.30;99.90;;;;;;5028530;28;20034;-82
2021/11/26 11:28:36;;;;;;;44.80;17.30;;;4.30;99.90;;;;;;5024122;28;20022;-83
2021/11/26 11:31:05;;;;;;;43.83;19.52;;;4.40;99.90;;;;;;5025019;28;20061;-83
2021/11/26 11:33:36;;;;;;;;;;;4.30;99.90;;;;;;5012794;28;20026;-81
2021/11/26 11:36:07;;;;;;;47.70;17.40;;;4.30;99.90;;;;;;5020691;28;19941;-83
2021/11/26 11:38:35;;;;;;;39.72;15.40;;;4.30;99.90;;;;;;5006018;28;20033;-81
2021/11/26 11:41:05;;;;;;;38.45;16.17;;;4.20;99.90;;;;;;5013475;28;20061;-84
2021/11/26 11:44:00;;;;;;;36.73;15.07;;;4.40;99.90;;;;;;5011170;28;20038;-83
2021/11/26 11:46:49;;;;;;;35.08;15.13;;;;;;;;;;5023111;28;20030;-82
2021/11/26 11:49:40;;;;;;;34.30;14.23;;;4.20;99.90;;;;;;5004429;28;20058;-85
2021/11/26 11:52:31;;;;;;;34.05;14.70;;;4.30;99.90;;;;;;5008337;28;20036;-87
2021/11/26 11:55:26;;;;;;;36.42;14.43;;;4.20;99.90;;;;;;5018108;28;20034;-87
2021/11/26 11:57:57;;;;;;;28.23;12.38;;;4.30;99.90;;;;;;5022079;28;20022;-83
2021/11/26 12:00:27;;;;;;;28.88;12.90;;;4.30;99.90;;;;;;5003410;28;20049;-84
2021/11/26 12:03:10;;;;;;;30.63;12.10;;;4.40;99.90;;;;;;5009474;28;20045;-84
2021/11/26 12:05:36;;;;;;;28.17;11.52;;;4.30;99.90;;;;;;5011118;28;20022;-82
2021/11/26 12:08:11;;;;;;;28.33;11.85;;;6.70;99.90;;;;;;5017504;28;20033;-82
2021/11/26 12:10:52;;;;;;;28.70;12.00;;;4.40;99.90;;;;;;5029799;28;20014;-86
2021/11/26 12:13:31;;;;;;;22.50;11.68;;;4.40;99.90;;;;;;5009182;28;20038;-81
2021/11/26 12:16:10;;;;;;;28.02;11.82;;;4.40;99.90;;;;;;5019313;28;20050;-80
2021/11/26 12:18:46;;;;;;;27.75;10.73;;;4.30;99.90;;;;;;5007797;28;20026;-81
2021/11/26 12:21:14;;;;;;;24.38;11.13;;;4.40;99.90;;;;;;5012960;28;20034;-82
2021/11/26 12:24:15;;;;;;;26.33;11.77;;;4.40;99.90;;;;;;5026357;28;20026;-84
2021/11/26 12:26:53;;;;;;;26.45;11.07;;;4.40;99.90;;;;;;5007168;28;20038;-81
2021/11/26 12:29:29;;;;;;;29.58;12.40;;;4.40;99.90;;;;;;5007537;28;20022;-81
2021/11/26 12:32:12;;;;;;;29.60;11.70;;;4.40;99.90;;;;;;5022838;28;20042;-82
2021/11/26 12:34:47;;;;;;;32.03;12.32;;;4.40;99.90;;;;;;5010781;28;20021;-82
2021/11/26 12:37:28;;;;;;;27.88;11.20;;;4.40;99.90;;;;;;5007947;28;20090;-83
2021/11/26 12:39:57;;;;;;;31.45;13.13;;;4.50;99.90;;;;;;4993160;28;21064;-83
2021/11/26 12:42:24;;;;;;;33.78;12.60;;;;;;;;;;5011008;28;20057;-81
2021/11/26 12:45:06;;;;;;;28.40;13.02;;;4.30;99.90;;;;;;5000367;28;20514;-82
2021/11/26 12:47:37;;;;;;;35.95;12.70;;;4.20;99.90;;;;;;5004685;28;20034;-81
2021/11/26 12:52:32;;;;;;;29.83;12.38;;;4.30;99.90;;;;;;5010394;28;20026;-82
2021/11/26 12:54:58;;;;;;;30.80;12.35;;;;;;;;;;5000939;28;20391;-81
2021/11/26 12:57:25;;;;;;;31.08;13.30;;;;;;;;;;4988677;28;20372;-82
2021/11/26 12:59:59;;;;;;;27.67;11.35;;;4.20;99.90;;;;;;5004651;28;20059;-81
2021/11/26 13:02:31;;;;;;;29.23;12.73;;;4.00;99.90;;;;;;5015120;28;20117;-82
2021/11/26 13:04:59;;;;;;;28.48;11.80;;;4.30;99.90;;;;;;5010622;28;20034;-79
2021/11/26 13:07:27;;;;;;;30.35;11.60;;;4.30;99.90;;;;;;5008180;28;20044;-81
2021/11/26 13:09:56;;;;;;;34.20;10.85;;;4.40;99.90;;;;;;4997687;28;20096;-82
2021/11/26 13:12:53;;;;;;;24.95;10.85;;;5.70;99.90;;;;;;4989020;28;20121;-81
2021/11/26 13:15:27;;;;;;;25.02;10.38;;;4.50;99.90;;;;;;5002027;28;20041;-83
2021/11/26 13:17:56;;;;;;;20.70;9.90;;;4.60;99.90;;;;;;4986356;28;20038;-81
2021/11/26 13:20:25;;;;;;;24.10;10.13;;;4.50;99.90;;;;;;5008684;28;20029;-82
2021/11/26 13:22:58;;;;;;;20.73;9.50;;;4.50;99.90;;;;;;4999506;28;20049;-84
2021/11/26 13:25:27;;;;;;;23.50;10.25;;;4.50;99.90;;;;;;4989748;28;20482;-83
2021/11/26 13:28:05;;;;;;;20.35;9.00;;;4.60;99.90;;;;;;5003165;28;20249;-82
2021/11/26 13:30:47;;;;;;;23.83;10.05;;;4.60;99.90;;;;;;4986957;28;20275;-84
2021/11/26 13:33:13;;;;;;;22.58;9.32;;;4.60;99.90;;;;;;4988563;28;20061;-82
2021/11/26 13:36:01;;;;;;;21.52;8.80;;;4.60;99.90;;;;;;5016626;28;20022;-84
2021/11/26 13:38:34;;;;;;;25.48;10.32;;;4.60;99.90;;;;;;5015771;28;20022;-84
2021/11/26 13:41:14;;;;;;;22.63;8.50;;;4.70;99.90;;;;;;5009473;28;20106;-79
2021/11/26 13:43:42;;;;;;;22.60;9.63;;;4.70;99.90;;;;;;5007556;28;20034;-82
2021/11/26 13:46:19;;;;;;;22.13;9.38;;;4.70;99.90;;;;;;5010932;28;20030;-82
2021/11/26 13:48:46;;;;;;;22.30;10.13;;;4.70;99.90;;;;;;5013425;28;20095;-84
2021/11/26 13:51:15;;;;;;;22.02;8.98;;;4.80;99.90;;;;;;4991913;28;20040;-82
2021/11/26 13:53:44;;;;;;;18.52;8.50;;;4.80;99.90;;;;;;4985910;28;20486;-84
2021/11/26 13:56:11;;;;;;;17.50;9.23;;;4.90;99.90;;;;;;5010055;28;20032;-83
2021/11/26 13:58:37;;;;;;;20.73;9.43;;;4.70;99.90;;;;;;4993437;28;20056;-83
2021/11/26 14:01:06;;;;;;;20.85;9.57;;;4.70;99.90;;;;;;5006679;28;20093;-83
2021/11/26 14:03:40;;;;;;;17.70;8.88;;;4.70;99.90;;;;;;5006915;28;20454;-83
2021/11/26 14:06:15;;;;;;;23.33;9.48;;;4.70;99.90;;;;;;5007114;28;20026;-84
2021/11/26 14:08:50;;;;;;;18.33;8.18;;;6.30;99.90;;;;;;4994804;28;20102;-81
2021/11/26 14:11:30;;;;;;;22.70;8.80;;;4.80;99.90;;;;;;5006615;28;20024;-83
2021/11/26 14:13:56;;;;;;;22.63;9.18;;;;;;;;;;5007040;28;20045;-83
2021/11/26 14:16:23;;;;;;;20.55;9.25;;;;;;;;;;5020973;28;20036;-81
2021/11/26 14:19:02;;;;;;;18.58;9.50;;;4.80;99.90;;;;;;5009115;28;20041;-82
2021/11/26 14:21:30;;;;;;;18.13;7.78;;;4.90;99.90;;;;;;5022235;28;20026;-83
2021/11/26 14:23:59;;;;;;;17.95;9.35;;;4.90;99.90;;;;;;5005091;28;20325;-89
2021/11/26 14:26:27;;;;;;;18.92;9.13;;;4.80;99.90;;;;;;5015376;28;20036;-81
2021/11/26 14:29:13;;;;;;;19.25;9.32;;;4.80;99.90;;;;;;5004417;28;20053;-86
2021/11/26 14:31:41;;;;;;;19.08;8.27;;;4.80;99.90;;;;;;5015511;28;20046;-82
2021/11/26 14:34:13;;;;;;;17.13;8.93;;;4.90;99.90;;;;;;5020266;28;20109;-82
2021/11/26 14:36:46;;;;;;;20.40;9.20;;;4.90;99.90;;;;;;5004898;28;20026;-83
2021/11/26 14:39:13;;;;;;;17.90;8.18;;;4.90;99.90;;;;;;5022214;28;20058;-85
2021/11/26 14:41:43;;;;;;;17.63;7.40;;;4.90;99.90;;;;;;5002891;28;20375;-82
2021/11/26 14:44:14;;;;;;;18.38;8.63;;;4.90;99.90;;;;;;4999244;28;20026;-80
2021/11/26 14:46:52;;;;;;;20.02;8.98;;;5.20;99.90;;;;;;5004616;28;20102;-82
2021/11/26 14:49:19;;;;;;;18.98;8.98;;;;;;;;;;5020426;28;20106;-86
2021/11/26 14:51:46;;;;;;;22.23;8.48;;;;;;;;;;5005338;28;20113;-83
2021/11/26 14:54:14;;;;;;;15.93;8.35;;;4.80;99.90;;;;;;5006025;28;20129;-84
2021/11/26 14:56:40;;;;;;;19.48;9.23;;;4.80;99.90;;;;;;5023365;28;20158;-81
2021/11/26 14:59:11;;;;;;;21.33;9.70;;;4.70;99.90;;;;;;5006693;28;20038;-83
2021/11/26 15:01:42;;;;;;;22.27;9.25;;;4.70;99.90;;;;;;5004764;28;20054;-83
2021/11/26 15:04:09;;;;;;;21.30;8.75;;;4.60;99.90;;;;;;5000547;28;20121;-84
2021/11/26 15:06:35;;;;;;;19.50;8.52;;;4.60;99.90;;;;;;5003951;28;20034;-82
2021/11/26 15:09:04;;;;;;;21.88;10.77;;;5.20;99.90;;;;;;5011581;28;20040;-82
2021/11/26 15:11:32;;;;;;;22.17;10.50;;;4.70;99.90;;;;;;5023280;28;20478;-83
2021/11/26 15:14:02;;;;;;;22.40;11.00;;;4.60;99.90;;;;;;5012697;28;20480;-81
2021/11/26 15:16:28;;;;;;;22.75;10.48;;;;;;;;;;5020609;28;20060;-85
2021/11/26 15:18:55;;;;;;;24.77;10.48;;;4.60;99.90;;;;;;5003972;28;20034;-82
2021/11/26 15:21:22;;;;;;;22.63;10.05;;;4.60;99.90;;;;;;5003244;28;20029;-84
2021/11/26 15:23:48;;;;;;;26.70;11.15;;;4.50;99.90;;;;;;5004430;28;20465;-83
2021/11/26 15:26:14;;;;;;;25.33;11.32;;;4.30;99.90;;;;;;5005421;28;20037;-84
2021/11/26 15:28:40;;;;;;;22.10;10.00;;;4.50;99.90;;;;;;5001427;28;20037;-83
2021/11/26 15:31:07;;;;;;;29.48;13.00;;;;;;;;;;5011451;28;20035;-81
2021/11/26 15:33:33;;;;;;;28.98;12.48;;;4.40;99.90;;;;;;5007431;28;20130;-81
2021/11/26 15:35:59;;;;;;;29.77;12.35;;;;;;;;;;5002677;28;20053;-83
2021/11/26 15:38:32;;;;;;;34.58;12.60;;;4.30;99.90;;;;;;5024348;28;20044;-82
2021/11/26 15:40:59;;;;;;;28.92;12.40;;;4.30;99.90;;;;;;5010366;28;20453;-82
2021/11/26 15:43:25;;;;;;;31.17;12.27;;;5.00;99.90;;;;;;5001230;28;20076;-81
2021/11/26 15:45:51;;;;;;;31.90;12.50;;;;;;;;;;4999610;28;20375;-82
2021/11/26 15:48:17;;;;;;;32.72;14.27;;;4.30;99.90;;;;;;5008561;28;20023;-82
2021/11/26 15:50:46;;;;;;;37.72;13.90;;;4.50;99.90;;;;;;5013223;28;20593;-83
2021/11/26 15:53:11;;;;;;;33.97;12.20;;;4.60;99.90;;;;;;4996509;28;20030;-82
2021/11/26 15:55:37;;;;;;;31.83;13.35;;;4.80;99.90;;;;;;5021245;28;20042;-81
2021/11/26 15:58:03;;;;;;;31.45;13.00;;;;;;;;;;5019218;28;20061;-82
2021/11/26 16:00:30;;;;;;;29.77;12.05;;;;;;;;;;4998630;28;20040;-82
2021/11/26 16:02:56;;;;;;;32.67;12.15;;;;;;;;;;4999322;28;20194;-79
2021/11/26 16:05:22;;;;;;;29.58;12.25;;;4.30;99.90;;;;;;5009903;28;20022;-81
2021/11/26 16:07:50;;;;;;;29.65;12.75;;;5.50;99.90;;;;;;5009568;28;20030;-83
2021/11/26 16:10:16;;;;;;;31.48;12.13;;;4.20;99.90;;;;;;5007738;28;20034;-80
2021/11/26 16:12:43;;;;;;;32.45;14.02;;;4.20;99.90;;;;;;5017506;28;20094;-84
2021/11/26 16:15:10;;;;;;;35.08;14.25;;;4.20;99.90;;;;;;4996593;28;20081;-85
2021/11/26 16:17:36;;;;;;;31.73;12.73;;;4.10;99.90;;;;;;5001791;28;20026;-82
2021/11/26 16:20:04;;;;;;;35.88;14.35;;;4.00;99.90;;;;;;4995376;28;20045;-83
2021/11/26 16:22:30;;;;;;;32.10;13.40;;;4.00;99.90;;;;;;4999305;28;20168;-79
2021/11/26 16:24:56;;;;;;;33.45;13.75;;;4.00;99.90;;;;;;4992630;28;20058;-84
2021/11/26 16:27:22;;;;;;;30.42;12.30;;;;;;;;;;5011571;28;20025;-80
2021/11/26 16:29:51;;;;;;;33.90;12.60;;;4.00;99.90;;;;;;5008687;28;20044;-81
2021/11/26 16:35:11;;;;;;;36.47;14.30;;;;;;;;;;5019874;28;20060;-83
2021/11/26 16:37:38;;;;;;;27.02;12.13;;;4.00;99.90;;;;;;5017809;28;20035;-82
2021/11/26 16:40:05;;;;;;;34.97;13.25;;;4.00;99.90;;;;;;4997355;28;20101;-83
2021/11/26 16:42:31;;;;;;;23.50;10.88;;;;;;;;;;5001208;28;20077;-83
2021/11/26 16:44:56;;;;;;;29.55;11.43;;;4.00;99.90;;;;;;5002652;28;20022;-82
2021/11/26 16:47:23;;;;;;;35.20;13.98;;;4.00;99.90;;;;;;5021629;28;20026;-83
2021/11/26 16:49:49;;;;;;;34.53;13.98;;;;;;;;;;5001045;28;20022;-82
2021/11/26 16:52:16;;;;;;;30.27;12.70;;;3.80;99.90;;;;;;5022200;28;20029;-84
2021/11/26 16:54:52;;;;;;;30.48;12.93;;;4.10;99.90;;;;;;5022678;28;20257;-85
2021/11/26 16:57:22;;;;;;;30.13;12.85;;;4.00;99.90;;;;;;5031351;28;20262;-86
2021/11/26 16:59:49;;;;;;;32.43;13.87;;;3.90;99.90;;;;;;5011148;28;20054;-83
2021/11/26 17:02:15;;;;;;;33.85;13.02;;;;;;;;;;4998886;28;20026;-86
2021/11/26 17:04:41;;;;;;;30.02;12.02;;;3.80;99.90;;;;;;5026531;28;20029;-82
2021/11/26 17:07:08;;;;;;;33.58;13.70;;;3.80;99.90;;;;;;5000975;28;20494;-82
2021/11/26 17:09:33;;;;;;;29.38;13.30;;;4.60;99.90;;;;;;5010235;28;20022;-81
2021/11/26 17:12:00;;;;;;;32.08;14.80;;;5.30;99.90;;;;;;5031656;28;20061;-84
2021/11/26 17:14:27;;;;;;;28.15;12.50;;;3.80;99.90;;;;;;5026749;28;20060;-83
2021/11/26 17:16:54;;;;;;;30.27;13.02;;;;;;;;;;5004397;28;20038;-81
2021/11/26 17:19:21;;;;;;;39.22;13.32;;;3.90;99.90;;;;;;5002880;28;20120;-83
2021/11/26 17:21:47;;;;;;;34.92;16.15;;;;;;;;;;5003226;28;20056;-81
2021/11/26 17:24:15;;;;;;;30.77;13.38;;;3.90;99.90;;;;;;4999606;28;20019;-81
2021/11/26 17:26:41;;;;;;;29.02;14.52;;;;;;;;;;4998419;28;20192;-79
2021/11/26 17:29:08;;;;;;;31.42;14.60;;;3.80;99.90;;;;;;5003014;28;20088;-79